sensor_id;sensor_type;location;lat;lon;timestamp;pressure;altitude;pressure_sealevel;temperature;humidity
9721;BME280;4899;42.644;23.366;2022-12-10T00:01:44;93634.19;;;7.71;100.00
9721;BME280;4899;42.644;23.366;2022-12-10T00:04:11;93627.84;;;7.60;100.00
9721;BME280;4899;42.644;23.366;2022-12-10T00:06:37;93622.28;;;7.58;100.00
9721;BME280;4899;42.644;23.366;2022-12-10T00:09:05;93623.03;;;7.59;100.00
9721;BME280;4899;42.644;23.366;2022-12-10T00:11:32;93594.75;;;7.38;100.00
9721;BME280;4899;42.644;23.366;2022-12-10T00:13:58;93574.13;;;7.52;100.00
9721;BME280;4899;42.644;23.366;2022-12-10T00:16:25;93613.56;;;7.77;100.00
9721;BME280;4899;42.644;23.366;2022-12-10T00:18:52;93606.91;;;7.84;100.00
9721;BME280;4899;42.644;23.366;2022-12-10T00:21:21;93596.63;;;7.93;100.00
9721;BME280;4899;42.644;23.366;2022-12-10T00:23:47;93599.38;;;7.96;100.00
9721;BME280;4899;42.644;23.366;2022-12-10T00:26:22;93585.66;;;7.84;100.00
9721;BME280;4899;42.644;23.366;2022-12-10T00:28:48;93603.44;;;7.97;100.00
9721;BME280;4899;42.644;23.366;2022-12-10T00:31:19;93591.81;;;8.00;100.00
9721;BME280;4899;42.644;23.366;2022-12-10T00:33:46;93597.56;;;7.97;100.00
9721;BME280;4899;42.644;23.366;2022-12-10T00:36:24;93598.91;;;7.94;100.00
9721;BME280;4899;42.644;23.366;2022-12-10T00:38:50;93624.66;;;7.89;100.00
9721;BME280;4899;42.644;23.366;2022-12-10T00:41:16;93617.00;;;7.81;100.00
9721;BME280;4899;42.644;23.366;2022-12-10T00:43:42;93618.19;;;7.83;100.00
9721;BME280;4899;42.644;23.366;2022-12-10T00:46:08;93602.25;;;7.78;100.00
9721;BME280;4899;42.644;23.366;2022-12-10T00:48:34;93558.56;;;7.83;100.00
9721;BME280;4899;42.644;23.366;2022-12-10T00:51:02;93604.63;;;7.91;100.00
9721;BME280;4899;42.644;23.366;2022-12-10T00:53:29;93617.91;;;7.85;100.00
9721;BME280;4899;42.644;23.366;2022-12-10T00:55:56;93617.28;;;7.88;100.00
9721;BME280;4899;42.644;23.366;2022-12-10T00:58:23;93621.97;;;7.94;100.00
9721;BME280;4899;42.644;23.366;2022-12-10T01:00:48;93605.69;;;7.99;100.00
9721;BME280;4899;42.644;23.366;2022-12-10T01:03:14;93634.00;;;7.94;100.00
9721;BME280;4899;42.644;23.366;2022-12-10T01:05:40;93606.28;;;7.96;100.00
9721;BME280;4899;42.644;23.366;2022-12-10T01:08:06;93602.69;;;7.80;100.00
9721;BME280;4899;42.644;23.366;2022-12-10T01:10:31;93586.31;;;7.72;100.00
9721;BME280;4899;42.644;23.366;2022-12-10T01:12:57;93577.56;;;7.73;100.00
9721;BME280;4899;42.644;23.366;2022-12-10T01:15:22;93585.97;;;7.82;100.00
9721;BME280;4899;42.644;23.366;2022-12-10T01:17:48;93608.81;;;8.05;100.00
9721;BME280;4899;42.644;23.366;2022-12-10T01:20:13;93590.47;;;8.02;100.00
9721;BME280;4899;42.644;23.366;2022-12-10T01:22:38;93589.09;;;8.05;100.00
9721;BME280;4899;42.644;23.366;2022-12-10T01:25:04;93588.34;;;8.05;100.00
9721;BME280;4899;42.644;23.366;2022-12-10T01:27:30;93589.69;;;8.02;100.00
9721;BME280;4899;42.644;23.366;2022-12-10T01:29:55;93585.47;;;8.06;100.00
9721;BME280;4899;42.644;23.366;2022-12-10T01:32:21;93564.97;;;8.06;100.00
9721;BME280;4899;42.644;23.366;2022-12-10T01:34:46;93571.16;;;8.05;100.00
9721;BME280;4899;42.644;23.366;2022-12-10T01:37:12;93571.50;;;7.95;100.00
9721;BME280;4899;42.644;23.366;2022-12-10T01:39:37;93564.84;;;8.02;100.00
9721;BME280;4899;42.644;23.366;2022-12-10T01:42:03;93539.25;;;8.02;100.00
9721;BME280;4899;42.644;23.366;2022-12-10T01:46:56;93579.31;;;7.98;100.00
9721;BME280;4899;42.644;23.366;2022-12-10T01:49:31;93575.88;;;7.94;100.00
9721;BME280;4899;42.644;23.366;2022-12-10T01:51:58;93576.44;;;8.00;100.00
9721;BME280;4899;42.644;23.366;2022-12-10T01:54:27;93567.44;;;7.94;100.00
9721;BME280;4899;42.644;23.366;2022-12-10T01:57:04;93573.91;;;8.00;100.00
9721;BME280;4899;42.644;23.366;2022-12-10T01:59:31;93561.72;;;7.97;100.00
9721;BME280;4899;42.644;23.366;2022-12-10T02:05:23;93576.09;;;8.10;100.00
9721;BME280;4899;42.644;23.366;2022-12-10T02:16:08;93597.16;;;8.24;100.00
9721;BME280;4899;42.644;23.366;2022-12-10T02:18:46;93598.94;;;8.32;100.00
9721;BME280;4899;42.644;23.366;2022-12-10T02:21:19;93562.81;;;8.25;100.00
9721;BME280;4899;42.644;23.366;2022-12-10T02:23:53;93591.84;;;8.47;100.00
9721;BME280;4899;42.644;23.366;2022-12-10T02:29:26;93558.09;;;8.66;100.00
9721;BME280;4899;42.644;23.366;2022-12-10T02:31:57;93556.00;;;8.68;100.00
9721;BME280;4899;42.644;23.366;2022-12-10T02:34:28;93551.44;;;8.73;100.00
9721;BME280;4899;42.644;23.366;2022-12-10T02:36:57;93552.56;;;8.84;100.00
9721;BME280;4899;42.644;23.366;2022-12-10T02:39:34;93558.56;;;8.29;100.00
9721;BME280;4899;42.644;23.366;2022-12-10T02:42:02;93523.88;;;8.02;100.00
9721;BME280;4899;42.644;23.366;2022-12-10T02:44:30;93555.31;;;8.20;100.00
9721;BME280;4899;42.644;23.366;2022-12-10T02:46:58;93548.06;;;8.14;100.00
9721;BME280;4899;42.644;23.366;2022-12-10T02:49:25;93527.63;;;8.05;100.00
9721;BME280;4899;42.644;23.366;2022-12-10T02:51:52;93527.00;;;8.08;100.00
9721;BME280;4899;42.644;23.366;2022-12-10T02:57:17;93502.06;;;7.96;100.00
9721;BME280;4899;42.644;23.366;2022-12-10T03:02:53;93539.84;;;7.99;100.00
9721;BME280;4899;42.644;23.366;2022-12-10T03:07:59;93541.75;;;8.11;100.00
9721;BME280;4899;42.644;23.366;2022-12-10T03:10:33;93544.00;;;8.13;100.00
9721;BME280;4899;42.644;23.366;2022-12-10T03:13:06;93506.75;;;7.94;100.00
9721;BME280;4899;42.644;23.366;2022-12-10T03:15:34;93545.38;;;8.10;100.00
9721;BME280;4899;42.644;23.366;2022-12-10T03:18:03;93532.91;;;8.00;100.00
9721;BME280;4899;42.644;23.366;2022-12-10T03:20:38;93526.56;;;8.06;100.00
9721;BME280;4899;42.644;23.366;2022-12-10T03:23:06;93543.25;;;8.12;100.00
9721;BME280;4899;42.644;23.366;2022-12-10T03:25:34;93545.66;;;8.17;100.00
9721;BME280;4899;42.644;23.366;2022-12-10T03:28:00;93552.44;;;8.22;100.00
9721;BME280;4899;42.644;23.366;2022-12-10T03:30:26;93539.75;;;8.25;100.00
9721;BME280;4899;42.644;23.366;2022-12-10T03:32:52;93516.81;;;8.29;100.00
9721;BME280;4899;42.644;23.366;2022-12-10T03:35:20;93516.06;;;8.28;100.00
9721;BME280;4899;42.644;23.366;2022-12-10T03:37:46;93543.31;;;8.42;100.00
9721;BME280;4899;42.644;23.366;2022-12-10T03:40:15;93539.44;;;8.36;100.00
9721;BME280;4899;42.644;23.366;2022-12-10T03:42:43;93525.88;;;8.35;100.00
9721;BME280;4899;42.644;23.366;2022-12-10T03:45:09;93511.25;;;8.27;100.00
9721;BME280;4899;42.644;23.366;2022-12-10T03:47:34;93508.66;;;8.44;100.00
9721;BME280;4899;42.644;23.366;2022-12-10T03:50:00;93540.66;;;8.59;100.00
9721;BME280;4899;42.644;23.366;2022-12-10T03:52:25;93514.56;;;8.36;100.00
9721;BME280;4899;42.644;23.366;2022-12-10T03:54:50;93507.00;;;8.40;100.00
9721;BME280;4899;42.644;23.366;2022-12-10T03:57:16;93520.47;;;8.57;100.00
9721;BME280;4899;42.644;23.366;2022-12-10T03:59:41;93511.53;;;8.63;100.00
9721;BME280;4899;42.644;23.366;2022-12-10T04:02:07;93522.81;;;8.71;100.00
9721;BME280;4899;42.644;23.366;2022-12-10T04:04:32;93499.75;;;8.71;100.00
9721;BME280;4899;42.644;23.366;2022-12-10T04:06:58;93512.94;;;8.82;100.00
9721;BME280;4899;42.644;23.366;2022-12-10T04:09:23;93503.34;;;8.91;100.00
9721;BME280;4899;42.644;23.366;2022-12-10T04:11:48;93490.78;;;8.98;100.00
9721;BME280;4899;42.644;23.366;2022-12-10T04:14:14;93479.16;;;9.01;100.00
9721;BME280;4899;42.644;23.366;2022-12-10T04:16:59;93496.97;;;9.18;100.00
9721;BME280;4899;42.644;23.366;2022-12-10T04:19:24;93507.91;;;9.27;100.00
9721;BME280;4899;42.644;23.366;2022-12-10T04:21:50;93477.13;;;9.06;100.00
9721;BME280;4899;42.644;23.366;2022-12-10T04:24:35;93497.41;;;9.20;100.00
9721;BME280;4899;42.644;23.366;2022-12-10T04:27:33;93500.41;;;9.22;100.00
9721;BME280;4899;42.644;23.366;2022-12-10T04:30:00;93494.66;;;9.25;100.00
9721;BME280;4899;42.644;23.366;2022-12-10T04:32:28;93497.22;;;9.25;100.00
9721;BME280;4899;42.644;23.366;2022-12-10T04:34:54;93529.50;;;9.26;100.00
9721;BME280;4899;42.644;23.366;2022-12-10T04:37:20;93529.31;;;9.10;100.00
9721;BME280;4899;42.644;23.366;2022-12-10T04:39:46;93516.91;;;8.91;100.00
9721;BME280;4899;42.644;23.366;2022-12-10T04:42:12;93515.75;;;8.68;100.00
9721;BME280;4899;42.644;23.366;2022-12-10T04:44:37;93541.81;;;8.70;100.00
9721;BME280;4899;42.644;23.366;2022-12-10T04:47:04;93528.41;;;8.64;100.00
9721;BME280;4899;42.644;23.366;2022-12-10T04:49:30;93540.91;;;8.66;100.00
9721;BME280;4899;42.644;23.366;2022-12-10T04:51:55;93541.91;;;8.53;100.00
9721;BME280;4899;42.644;23.366;2022-12-10T04:54:21;93550.28;;;8.62;100.00
9721;BME280;4899;42.644;23.366;2022-12-10T04:56:47;93540.53;;;8.55;100.00
9721;BME280;4899;42.644;23.366;2022-12-10T04:59:14;93532.53;;;8.57;100.00
9721;BME280;4899;42.644;23.366;2022-12-10T05:01:39;93533.28;;;8.57;100.00
9721;BME280;4899;42.644;23.366;2022-12-10T05:04:07;93526.78;;;8.60;100.00
9721;BME280;4899;42.644;23.366;2022-12-10T05:06:33;93546.03;;;8.66;100.00
9721;BME280;4899;42.644;23.366;2022-12-10T05:08:58;93530.41;;;8.59;100.00
9721;BME280;4899;42.644;23.366;2022-12-10T05:11:26;93531.91;;;8.60;100.00
9721;BME280;4899;42.644;23.366;2022-12-10T05:13:53;93523.53;;;8.51;100.00
9721;BME280;4899;42.644;23.366;2022-12-10T05:16:20;93546.78;;;8.46;100.00
9721;BME280;4899;42.644;23.366;2022-12-10T05:18:46;93502.91;;;8.47;100.00
9721;BME280;4899;42.644;23.366;2022-12-10T05:21:13;93517.03;;;8.53;100.00
9721;BME280;4899;42.644;23.366;2022-12-10T05:23:41;93541.03;;;8.49;100.00
9721;BME280;4899;42.644;23.366;2022-12-10T05:26:10;93509.84;;;8.47;100.00
9721;BME280;4899;42.644;23.366;2022-12-10T05:28:38;93487.53;;;8.47;100.00
9721;BME280;4899;42.644;23.366;2022-12-10T05:31:04;93500.22;;;8.44;100.00
9721;BME280;4899;42.644;23.366;2022-12-10T05:33:31;93520.13;;;8.38;100.00
9721;BME280;4899;42.644;23.366;2022-12-10T05:36:01;93513.50;;;8.28;100.00
9721;BME280;4899;42.644;23.366;2022-12-10T05:38:29;93505.84;;;8.28;100.00
9721;BME280;4899;42.644;23.366;2022-12-10T05:40:55;93518.50;;;8.33;100.00
9721;BME280;4899;42.644;23.366;2022-12-10T05:43:21;93535.63;;;8.42;100.00
9721;BME280;4899;42.644;23.366;2022-12-10T05:45:46;93520.25;;;8.42;100.00
9721;BME280;4899;42.644;23.366;2022-12-10T05:48:14;93531.25;;;8.42;100.00
9721;BME280;4899;42.644;23.366;2022-12-10T05:50:41;93533.97;;;8.46;100.00
9721;BME280;4899;42.644;23.366;2022-12-10T05:53:06;93525.38;;;8.42;100.00
9721;BME280;4899;42.644;23.366;2022-12-10T05:55:32;93537.00;;;8.39;100.00
9721;BME280;4899;42.644;23.366;2022-12-10T05:57:59;93536.25;;;8.39;100.00
9721;BME280;4899;42.644;23.366;2022-12-10T06:00:26;93541.81;;;8.41;100.00
9721;BME280;4899;42.644;23.366;2022-12-10T06:02:51;93548.00;;;8.40;100.00
9721;BME280;4899;42.644;23.366;2022-12-10T06:05:17;93537.75;;;8.40;100.00
9721;BME280;4899;42.644;23.366;2022-12-10T06:07:43;93538.34;;;8.45;100.00
9721;BME280;4899;42.644;23.366;2022-12-10T06:10:09;93551.91;;;8.46;100.00
9721;BME280;4899;42.644;23.366;2022-12-10T06:12:34;93544.06;;;8.42;100.00
9721;BME280;4899;42.644;23.366;2022-12-10T06:15:00;93547.78;;;8.53;100.00
9721;BME280;4899;42.644;23.366;2022-12-10T06:17:25;93543.91;;;8.47;100.00
9721;BME280;4899;42.644;23.366;2022-12-10T06:19:51;93536.47;;;8.54;100.00
9721;BME280;4899;42.644;23.366;2022-12-10T06:22:16;93538.28;;;8.54;100.00
9721;BME280;4899;42.644;23.366;2022-12-10T06:24:41;93549.59;;;8.53;100.00
9721;BME280;4899;42.644;23.366;2022-12-10T06:27:07;93528.22;;;8.49;100.00
9721;BME280;4899;42.644;23.366;2022-12-10T06:29:32;93542.59;;;8.62;100.00
9721;BME280;4899;42.644;23.366;2022-12-10T06:31:58;93548.31;;;8.68;100.00
9721;BME280;4899;42.644;23.366;2022-12-10T06:34:23;93544.53;;;8.65;100.00
9721;BME280;4899;42.644;23.366;2022-12-10T06:36:49;93527.81;;;8.68;100.00
9721;BME280;4899;42.644;23.366;2022-12-10T06:39:14;93527.19;;;8.71;100.00
9721;BME280;4899;42.644;23.366;2022-12-10T06:41:39;93507.78;;;8.61;100.00
9721;BME280;4899;42.644;23.366;2022-12-10T06:44:09;93520.06;;;8.76;100.00
9721;BME280;4899;42.644;23.366;2022-12-10T06:46:34;93522.97;;;8.66;100.00
9721;BME280;4899;42.644;23.366;2022-12-10T06:49:00;93544.94;;;8.76;100.00
9721;BME280;4899;42.644;23.366;2022-12-10T06:51:25;93542.19;;;8.81;100.00
9721;BME280;4899;42.644;23.366;2022-12-10T06:53:51;93532.56;;;8.78;100.00
9721;BME280;4899;42.644;23.366;2022-12-10T06:56:18;93559.00;;;8.90;100.00
9721;BME280;4899;42.644;23.366;2022-12-10T06:58:44;93541.88;;;8.82;100.00
9721;BME280;4899;42.644;23.366;2022-12-10T07:01:19;93519.63;;;8.74;100.00
9721;BME280;4899;42.644;23.366;2022-12-10T07:03:51;93514.19;;;8.76;100.00
9721;BME280;4899;42.644;23.366;2022-12-10T07:06:18;93536.31;;;8.80;100.00
9721;BME280;4899;42.644;23.366;2022-12-10T07:08:43;93534.91;;;8.62;100.00
9721;BME280;4899;42.644;23.366;2022-12-10T07:11:11;93559.34;;;8.89;100.00
9721;BME280;4899;42.644;23.366;2022-12-10T07:13:37;93569.91;;;9.08;100.00
9721;BME280;4899;42.644;23.366;2022-12-10T07:16:32;93556.66;;;9.27;100.00
9721;BME280;4899;42.644;23.366;2022-12-10T07:18:59;93538.41;;;9.41;100.00
9721;BME280;4899;42.644;23.366;2022-12-10T07:21:30;93562.25;;;9.62;100.00
9721;BME280;4899;42.644;23.366;2022-12-10T07:23:58;93558.75;;;9.67;100.00
9721;BME280;4899;42.644;23.366;2022-12-10T07:26:25;93543.78;;;9.69;100.00
9721;BME280;4899;42.644;23.366;2022-12-10T07:28:53;93516.97;;;9.45;100.00
9721;BME280;4899;42.644;23.366;2022-12-10T07:31:19;93509.97;;;9.34;100.00
9721;BME280;4899;42.644;23.366;2022-12-10T07:33:45;93536.88;;;9.61;100.00
9721;BME280;4899;42.644;23.366;2022-12-10T07:36:12;93516.50;;;9.76;100.00
9721;BME280;4899;42.644;23.366;2022-12-10T07:38:38;93497.56;;;9.81;100.00
9721;BME280;4899;42.644;23.366;2022-12-10T07:41:05;93530.38;;;9.63;100.00
9721;BME280;4899;42.644;23.366;2022-12-10T07:43:35;93528.13;;;9.62;100.00
9721;BME280;4899;42.644;23.366;2022-12-10T07:46:13;93534.84;;;9.54;100.00
9721;BME280;4899;42.644;23.366;2022-12-10T07:48:39;93545.69;;;9.72;100.00
9721;BME280;4899;42.644;23.366;2022-12-10T07:51:06;93549.78;;;9.73;100.00
9721;BME280;4899;42.644;23.366;2022-12-10T07:53:31;93554.38;;;9.79;100.00
9721;BME280;4899;42.644;23.366;2022-12-10T07:55:57;93507.81;;;9.69;100.00
9721;BME280;4899;42.644;23.366;2022-12-10T07:58:30;93506.47;;;9.96;100.00
9721;BME280;4899;42.644;23.366;2022-12-10T08:00:56;93504.66;;;9.96;100.00
9721;BME280;4899;42.644;23.366;2022-12-10T08:03:33;93453.75;;;9.65;100.00
9721;BME280;4899;42.644;23.366;2022-12-10T08:06:12;93465.16;;;10.01;100.00
9721;BME280;4899;42.644;23.366;2022-12-10T08:08:45;93439.56;;;10.04;100.00
9721;BME280;4899;42.644;23.366;2022-12-10T08:11:15;93496.56;;;10.43;100.00
9721;BME280;4899;42.644;23.366;2022-12-10T08:13:44;93456.50;;;10.30;100.00
9721;BME280;4899;42.644;23.366;2022-12-10T08:16:15;93501.88;;;10.62;100.00
9721;BME280;4899;42.644;23.366;2022-12-10T08:18:42;93514.63;;;10.59;100.00
9721;BME280;4899;42.644;23.366;2022-12-10T08:21:13;93508.09;;;10.61;100.00
9721;BME280;4899;42.644;23.366;2022-12-10T08:23:39;93480.97;;;10.76;100.00
9721;BME280;4899;42.644;23.366;2022-12-10T08:26:07;93495.50;;;10.84;100.00
9721;BME280;4899;42.644;23.366;2022-12-10T08:28:33;93510.19;;;10.84;100.00
9721;BME280;4899;42.644;23.366;2022-12-10T08:30:58;93481.97;;;10.99;100.00
9721;BME280;4899;42.644;23.366;2022-12-10T08:33:24;93473.31;;;11.20;100.00
9721;BME280;4899;42.644;23.366;2022-12-10T08:35:50;93464.53;;;11.21;100.00
9721;BME280;4899;42.644;23.366;2022-12-10T08:38:15;93452.31;;;11.18;100.00
9721;BME280;4899;42.644;23.366;2022-12-10T08:40:41;93491.97;;;11.45;100.00
9721;BME280;4899;42.644;23.366;2022-12-10T08:43:07;93483.72;;;11.39;100.00
9721;BME280;4899;42.644;23.366;2022-12-10T08:45:33;93476.00;;;11.39;100.00
9721;BME280;4899;42.644;23.366;2022-12-10T08:48:00;93474.50;;;11.38;100.00
9721;BME280;4899;42.644;23.366;2022-12-10T08:50:26;93470.94;;;11.27;100.00
9721;BME280;4899;42.644;23.366;2022-12-10T08:52:52;93448.13;;;11.13;100.00
9721;BME280;4899;42.644;23.366;2022-12-10T08:55:17;93453.59;;;11.12;100.00
9721;BME280;4899;42.644;23.366;2022-12-10T08:57:43;93445.03;;;10.92;100.00
9721;BME280;4899;42.644;23.366;2022-12-10T09:00:08;93464.72;;;11.00;100.00
9721;BME280;4899;42.644;23.366;2022-12-10T09:02:34;93473.25;;;10.76;100.00
9721;BME280;4899;42.644;23.366;2022-12-10T09:04:59;93463.47;;;10.82;100.00
9721;BME280;4899;42.644;23.366;2022-12-10T09:07:26;93454.13;;;10.89;100.00
9721;BME280;4899;42.644;23.366;2022-12-10T09:09:52;93434.09;;;10.83;100.00
9721;BME280;4899;42.644;23.366;2022-12-10T09:12:17;93447.72;;;10.83;100.00
9721;BME280;4899;42.644;23.366;2022-12-10T09:14:42;93457.56;;;10.93;100.00
9721;BME280;4899;42.644;23.366;2022-12-10T09:17:08;93452.44;;;10.81;100.00
9721;BME280;4899;42.644;23.366;2022-12-10T09:19:33;93428.44;;;10.77;100.00
9721;BME280;4899;42.644;23.366;2022-12-10T09:21:59;93452.34;;;10.77;100.00
9721;BME280;4899;42.644;23.366;2022-12-10T09:24:25;93469.94;;;10.75;100.00
9721;BME280;4899;42.644;23.366;2022-12-10T09:26:50;93455.91;;;10.73;100.00
9721;BME280;4899;42.644;23.366;2022-12-10T09:29:16;93449.63;;;10.86;100.00
9721;BME280;4899;42.644;23.366;2022-12-10T09:31:41;93434.09;;;10.83;100.00
9721;BME280;4899;42.644;23.366;2022-12-10T09:34:08;93425.50;;;10.91;100.00
9721;BME280;4899;42.644;23.366;2022-12-10T09:36:33;93447.19;;;11.05;100.00
9721;BME280;4899;42.644;23.366;2022-12-10T09:38:58;93419.13;;;11.00;100.00
9721;BME280;4899;42.644;23.366;2022-12-10T09:46:54;93400.72;;;11.14;100.00
9721;BME280;4899;42.644;23.366;2022-12-10T09:51:45;93405.88;;;11.14;100.00
9721;BME280;4899;42.644;23.366;2022-12-10T09:56:43;93379.41;;;11.29;100.00
9721;BME280;4899;42.644;23.366;2022-12-10T09:59:43;93383.44;;;11.43;100.00
9721;BME280;4899;42.644;23.366;2022-12-10T10:04:42;93410.84;;;11.82;100.00
9721;BME280;4899;42.644;23.366;2022-12-10T10:07:20;93399.53;;;11.87;100.00
9721;BME280;4899;42.644;23.366;2022-12-10T10:09:46;93361.72;;;11.91;100.00
9721;BME280;4899;42.644;23.366;2022-12-10T10:12:14;93392.66;;;12.26;100.00
9721;BME280;4899;42.644;23.366;2022-12-10T10:14:41;93392.13;;;12.17;100.00
9721;BME280;4899;42.644;23.366;2022-12-10T10:17:16;93396.34;;;12.09;100.00
9721;BME280;4899;42.644;23.366;2022-12-10T10:19:44;93395.13;;;12.03;100.00
9721;BME280;4899;42.644;23.366;2022-12-10T10:22:10;93395.47;;;12.01;100.00
9721;BME280;4899;42.644;23.366;2022-12-10T10:24:40;93395.25;;;12.10;100.00
9721;BME280;4899;42.644;23.366;2022-12-10T10:27:14;93397.34;;;12.20;100.00
9721;BME280;4899;42.644;23.366;2022-12-10T10:29:42;93383.22;;;12.33;100.00
9721;BME280;4899;42.644;23.366;2022-12-10T10:34:38;93382.72;;;12.44;100.00
9721;BME280;4899;42.644;23.366;2022-12-10T10:37:04;93351.78;;;12.44;100.00
9721;BME280;4899;42.644;23.366;2022-12-10T10:39:31;93361.53;;;12.54;100.00
9721;BME280;4899;42.644;23.366;2022-12-10T10:42:06;93355.34;;;12.58;100.00
9721;BME280;4899;42.644;23.366;2022-12-10T10:44:35;93344.16;;;12.70;100.00
9721;BME280;4899;42.644;23.366;2022-12-10T10:47:02;93344.53;;;12.91;100.00
9721;BME280;4899;42.644;23.366;2022-12-10T10:49:30;93358.88;;;13.12;100.00
9721;BME280;4899;42.644;23.366;2022-12-10T10:52:04;93352.91;;;13.27;100.00
9721;BME280;4899;42.644;23.366;2022-12-10T10:54:33;93334.50;;;13.29;100.00
9721;BME280;4899;42.644;23.366;2022-12-10T10:57:02;93345.47;;;13.45;100.00
9721;BME280;4899;42.644;23.366;2022-12-10T10:59:30;93312.75;;;13.30;100.00
9721;BME280;4899;42.644;23.366;2022-12-10T11:02:05;93337.34;;;13.46;100.00
9721;BME280;4899;42.644;23.366;2022-12-10T11:04:51;93317.72;;;13.42;100.00
9721;BME280;4899;42.644;23.366;2022-12-10T11:10:00;93297.16;;;13.49;100.00
9721;BME280;4899;42.644;23.366;2022-12-10T11:14:55;93320.91;;;13.84;100.00
9721;BME280;4899;42.644;23.366;2022-12-10T11:17:22;93296.22;;;13.87;100.00
9721;BME280;4899;42.644;23.366;2022-12-10T11:19:56;93284.34;;;13.82;100.00
9721;BME280;4899;42.644;23.366;2022-12-10T11:22:32;93281.59;;;13.98;100.00
9721;BME280;4899;42.644;23.366;2022-12-10T11:24:59;93288.19;;;14.26;100.00
9721;BME280;4899;42.644;23.366;2022-12-10T11:27:58;93279.78;;;14.32;100.00
9721;BME280;4899;42.644;23.366;2022-12-10T11:30:26;93268.91;;;14.50;100.00
9721;BME280;4899;42.644;23.366;2022-12-10T11:43:45;93275.25;;;14.56;100.00
9721;BME280;4899;42.644;23.366;2022-12-10T11:51:38;93284.13;;;14.55;100.00
9721;BME280;4899;42.644;23.366;2022-12-10T12:00:13;93256.19;;;14.71;100.00
9721;BME280;4899;42.644;23.366;2022-12-10T12:05:24;93257.28;;;14.70;100.00
9721;BME280;4899;42.644;23.366;2022-12-10T12:11:14;93252.06;;;14.66;100.00
9721;BME280;4899;42.644;23.366;2022-12-10T12:16:45;93231.84;;;14.42;100.00
9721;BME280;4899;42.644;23.366;2022-12-10T12:19:27;93227.13;;;14.48;100.00
9721;BME280;4899;42.644;23.366;2022-12-10T12:21:56;93226.66;;;14.08;100.00
9721;BME280;4899;42.644;23.366;2022-12-10T12:24:35;93241.81;;;14.10;100.00
9721;BME280;4899;42.644;23.366;2022-12-10T12:29:47;93242.81;;;13.98;100.00
9721;BME280;4899;42.644;23.366;2022-12-10T12:32:25;93202.66;;;14.08;100.00
9721;BME280;4899;42.644;23.366;2022-12-10T12:35:06;93203.34;;;14.05;100.00
9721;BME280;4899;42.644;23.366;2022-12-10T12:37:44;93212.84;;;13.94;100.00
9721;BME280;4899;42.644;23.366;2022-12-10T12:40:16;93215.03;;;13.92;100.00
9721;BME280;4899;42.644;23.366;2022-12-10T12:43:01;93180.63;;;13.88;100.00
9721;BME280;4899;42.644;23.366;2022-12-10T12:45:36;93184.84;;;13.99;100.00
9721;BME280;4899;42.644;23.366;2022-12-10T12:48:20;93180.41;;;14.00;100.00
9721;BME280;4899;42.644;23.366;2022-12-10T12:50:53;93186.78;;;14.09;100.00
9721;BME280;4899;42.644;23.366;2022-12-10T12:53:21;93178.38;;;14.16;100.00
9721;BME280;4899;42.644;23.366;2022-12-10T12:58:41;93164.53;;;14.01;100.00
9721;BME280;4899;42.644;23.366;2022-12-10T13:03:48;93115.47;;;13.71;100.00
9721;BME280;4899;42.644;23.366;2022-12-10T13:06:24;93157.72;;;13.86;100.00
9721;BME280;4899;42.644;23.366;2022-12-10T13:11:28;93147.34;;;13.82;100.00
9721;BME280;4899;42.644;23.366;2022-12-10T13:19:16;93166.56;;;13.85;100.00
9721;BME280;4899;42.644;23.366;2022-12-10T13:22:11;93153.94;;;13.76;100.00
9721;BME280;4899;42.644;23.366;2022-12-10T13:32:18;93122.22;;;13.46;100.00
9721;BME280;4899;42.644;23.366;2022-12-10T13:34:44;93130.22;;;13.67;100.00
9721;BME280;4899;42.644;23.366;2022-12-10T13:39:50;93085.09;;;13.61;100.00
9721;BME280;4899;42.644;23.366;2022-12-10T13:50:03;93123.84;;;13.31;100.00
9721;BME280;4899;42.644;23.366;2022-12-10T13:55:39;93106.44;;;13.24;100.00
9721;BME280;4899;42.644;23.366;2022-12-10T14:01:10;93112.13;;;13.37;100.00
9721;BME280;4899;42.644;23.366;2022-12-10T14:06:25;93107.22;;;13.29;100.00
9721;BME280;4899;42.644;23.366;2022-12-10T14:09:02;93086.59;;;13.02;100.00
9721;BME280;4899;42.644;23.366;2022-12-10T14:11:35;93104.00;;;13.09;100.00
9721;BME280;4899;42.644;23.366;2022-12-10T14:14:04;93109.56;;;13.11;100.00
9721;BME280;4899;42.644;23.366;2022-12-10T14:16:32;93076.97;;;12.99;100.00
9721;BME280;4899;42.644;23.366;2022-12-10T14:19:04;93095.53;;;13.12;100.00
9721;BME280;4899;42.644;23.366;2022-12-10T14:21:35;93102.16;;;13.09;100.00
9721;BME280;4899;42.644;23.366;2022-12-10T14:24:01;93094.72;;;13.04;100.00
9721;BME280;4899;42.644;23.366;2022-12-10T14:26:32;93071.44;;;13.01;100.00
9721;BME280;4899;42.644;23.366;2022-12-10T14:31:39;93068.16;;;13.04;100.00
9721;BME280;4899;42.644;23.366;2022-12-10T14:34:08;93071.97;;;13.13;100.00
9721;BME280;4899;42.644;23.366;2022-12-10T14:36:45;93064.56;;;13.12;100.00
9721;BME280;4899;42.644;23.366;2022-12-10T14:39:14;93059.00;;;13.10;100.00
9721;BME280;4899;42.644;23.366;2022-12-10T14:41:40;93069.69;;;13.08;100.00
9721;BME280;4899;42.644;23.366;2022-12-10T14:44:06;93046.69;;;12.96;100.00
9721;BME280;4899;42.644;23.366;2022-12-10T14:46:32;93057.88;;;13.07;100.00
9721;BME280;4899;42.644;23.366;2022-12-10T14:48:58;93040.16;;;13.06;100.00
9721;BME280;4899;42.644;23.366;2022-12-10T14:51:25;93049.78;;;13.09;100.00
9721;BME280;4899;42.644;23.366;2022-12-10T14:53:53;93054.88;;;13.02;100.00
9721;BME280;4899;42.644;23.366;2022-12-10T14:56:26;93052.25;;;12.98;100.00
9721;BME280;4899;42.644;23.366;2022-12-10T15:01:37;93051.06;;;12.92;100.00
9721;BME280;4899;42.644;23.366;2022-12-10T15:04:05;93050.13;;;12.77;100.00
9721;BME280;4899;42.644;23.366;2022-12-10T15:06:37;93029.53;;;12.28;100.00
9721;BME280;4899;42.644;23.366;2022-12-10T15:09:04;93064.50;;;12.52;100.00
9721;BME280;4899;42.644;23.366;2022-12-10T15:11:34;93064.38;;;12.41;100.00
9721;BME280;4899;42.644;23.366;2022-12-10T15:14:02;93063.28;;;12.42;100.00
9721;BME280;4899;42.644;23.366;2022-12-10T15:16:40;93053.69;;;12.43;100.00
9721;BME280;4899;42.644;23.366;2022-12-10T15:19:16;93049.78;;;12.52;100.00
9721;BME280;4899;42.644;23.366;2022-12-10T15:21:43;93057.34;;;12.65;100.00